Terminal Aerodrome Forecast
Issued by NWS

Home | Current Version | Previous Version | Text Only | Print | Product List | Glossary Off
Versions: 1 2 3 4 5 6 7 8 9 10 11 12 13 14 15 16 17 18 19

000
FTUS43 KABR 302300
TAFMBG
TAF
KMBG 302328Z 3100/3124 14012KT P6SM SKC
     FM310400 11015KT P6SM VCTS BKN050CB
     FM310700 15008KT P6SM OVC050
     FM311300 31010KT P6SM OVC050=

USA.gov is the U.S. government's official web portal to all federal, state and local government web resources and services.